Time;durP1;ratioP1;P1;durP2;ratioP2;P2;SDS_P1;SDS_P2;PMS_P1;PMS_P2;Temp;Humidity;BMP_temperature;BMP_pressure;BME280_temperature;BME280_humidity;BME280_pressure;Samples;Min_cycle;Max_cycle;Signal;HPM_P1;HPM_P2
2022/08/14 00:02:15;;;;;;;5.65;5.10;;;23.20;84.30;;;;;;6337872;22;20005;-79
2022/08/14 00:04:41;;;;;;;4.65;4.25;;;23.10;84.30;;;;;;6337529;22;20089;-79
2022/08/14 00:07:07;;;;;;;4.72;4.25;;;23.00;84.40;;;;;;6338360;22;19999;-79
2022/08/14 00:09:34;;;;;;;5.88;5.40;;;23.10;84.30;;;;;;6338004;22;20003;-80
2022/08/14 00:11:59;;;;;;;13.73;4.88;;;23.00;84.20;;;;;;6337773;22;20002;-79
2022/08/14 00:14:26;;;;;;;8.00;4.65;;;23.00;84.40;;;;;;6338212;22;20010;-80
2022/08/14 00:16:52;;;;;;;7.72;4.40;;;22.90;84.50;;;;;;6337961;22;20484;-79
2022/08/14 00:19:18;;;;;;;5.25;4.60;;;22.90;84.70;;;;;;6336833;22;20007;-80
2022/08/14 00:21:43;;;;;;;5.55;5.05;;;22.90;84.70;;;;;;6337708;22;20011;-80
2022/08/14 00:24:09;;;;;;;6.72;5.90;;;22.90;84.70;;;;;;6337682;22;20015;-79
2022/08/14 00:26:35;;;;;;;7.93;5.55;;;22.80;84.40;;;;;;6338434;22;20296;-80
2022/08/14 00:29:01;;;;;;;5.40;4.90;;;22.80;84.70;;;;;;6338807;22;20032;-79
2022/08/14 00:31:27;;;;;;;5.80;4.80;;;22.80;84.80;;;;;;6338388;22;20007;-79
2022/08/14 00:33:53;;;;;;;4.90;4.50;;;22.70;85.00;;;;;;6337386;22;19998;-78
2022/08/14 00:36:20;;;;;;;6.72;5.13;;;22.60;85.00;;;;;;6338216;22;19995;-78
2022/08/14 00:38:46;;;;;;;6.40;5.38;;;22.70;85.00;;;;;;6338363;22;20018;-79
2022/08/14 00:41:11;;;;;;;5.28;4.78;;;22.70;85.00;;;;;;6337298;22;19999;-80
2022/08/14 00:43:37;;;;;;;5.95;5.53;;;22.60;85.30;;;;;;6339332;22;19999;-80
2022/08/14 00:46:05;;;;;;;5.60;5.20;;;22.60;85.30;;;;;;6339239;22;19999;-80
2022/08/14 00:48:31;;;;;;;9.88;5.90;;;22.50;85.50;;;;;;6337420;22;19995;-81
2022/08/14 00:50:58;;;;;;;9.45;5.47;;;22.50;85.40;;;;;;6337394;22;20003;-78
2022/08/14 00:53:24;;;;;;;6.55;5.95;;;22.50;85.50;;;;;;6336695;22;20432;-79
2022/08/14 00:55:54;;;;;;;5.85;5.35;;;22.50;85.30;;;;;;6338041;22;19999;-79
2022/08/14 00:58:32;;;;;;;6.10;5.70;;;22.50;85.40;;;;;;6337910;22;20006;-79
2022/08/14 01:01:01;;;;;;;5.05;4.75;;;22.40;85.60;;;;;;6339185;22;19998;-78
2022/08/14 01:03:30;;;;;;;6.60;6.00;;;22.40;85.70;;;;;;6338654;22;20011;-79
2022/08/14 01:05:57;;;;;;;6.28;5.68;;;22.40;85.70;;;;;;6339795;22;20042;-78
2022/08/14 01:08:25;;;;;;;6.25;5.85;;;22.30;85.70;;;;;;6338653;22;20314;-78
2022/08/14 01:10:53;;;;;;;5.97;5.57;;;22.30;85.80;;;;;;6339060;22;19999;-80
2022/08/14 01:13:31;;;;;;;7.80;5.60;;;22.30;86.10;;;;;;6339320;22;20010;-80
2022/08/14 01:16:00;;;;;;;9.50;5.45;;;22.20;86.30;;;;;;6338845;22;19995;-78
2022/08/14 01:21:16;;;;;;;7.07;6.45;;;22.20;86.50;;;;;;6338859;22;20087;-80
2022/08/14 01:23:49;;;;;;;6.20;5.70;;;22.10;86.60;;;;;;6339296;22;20022;-79
2022/08/14 01:26:19;;;;;;;6.32;5.72;;;22.10;86.80;;;;;;6340744;22;20074;-78
2022/08/14 01:28:46;;;;;;;;;;;22.00;87.00;;;;;;6344592;22;20003;-79
2022/08/14 01:31:15;;;;;;;6.22;5.63;;;22.00;87.00;;;;;;6343145;22;19920;-78
2022/08/14 01:33:46;;;;;;;7.38;5.60;;;22.00;87.50;;;;;;6339778;22;20003;-79
2022/08/14 01:36:15;;;;;;;8.25;5.45;;;22.00;87.60;;;;;;6338388;22;20051;-80
2022/08/14 01:38:44;;;;;;;5.80;5.28;;;21.90;87.80;;;;;;6339363;22;20014;-79
2022/08/14 01:41:12;;;;;;;5.93;5.43;;;21.90;88.20;;;;;;6338743;22;20015;-79
2022/08/14 01:43:53;;;;;;;7.57;5.07;;;21.80;88.30;;;;;;6338764;22;20296;-78
2022/08/14 01:46:24;;;;;;;6.57;5.20;;;21.80;88.60;;;;;;6338554;22;20541;-80
2022/08/14 01:48:51;;;;;;;;;;;21.70;88.80;;;;;;6339509;22;20055;-78
2022/08/14 01:51:21;;;;;;;6.15;5.60;;;21.60;88.80;;;;;;6338109;22;19902;-79
2022/08/14 01:53:51;;;;;;;5.60;5.20;;;21.70;89.00;;;;;;6339404;22;20003;-79
2022/08/14 01:56:17;;;;;;;6.22;5.60;;;21.70;89.10;;;;;;6338897;22;20023;-78
2022/08/14 01:58:47;;;;;;;5.88;5.47;;;21.60;89.20;;;;;;6338329;22;20103;-77
2022/08/14 02:01:15;;;;;;;6.10;5.40;;;21.60;89.30;;;;;;6338778;22;19999;-78
2022/08/14 02:03:40;;;;;;;6.90;6.20;;;21.60;89.60;;;;;;6338503;22;19998;-79
2022/08/14 02:06:06;;;;;;;5.78;5.30;;;21.60;89.70;;;;;;6339229;22;20010;-79
2022/08/14 02:08:36;;;;;;;6.63;6.03;;;21.60;89.90;;;;;;6338633;22;20458;-79
2022/08/14 02:11:21;;;;;;;7.28;4.93;;;21.60;90.00;;;;;;6340520;22;19999;-80
2022/08/14 02:14:00;;;;;;;5.72;4.97;;;21.50;90.00;;;;;;6340953;22;20040;-79
2022/08/14 02:16:32;;;;;;;5.88;5.28;;;21.50;90.20;;;;;;6338756;22;20071;-80
2022/08/14 02:19:00;;;;;;;6.35;5.72;;;21.50;90.30;;;;;;6338339;22;20116;-80
2022/08/14 02:21:29;;;;;;;6.18;5.57;;;21.40;90.40;;;;;;6338833;22;20041;-79
2022/08/14 02:23:55;;;;;;;6.25;5.68;;;21.40;90.50;;;;;;6339048;22;20019;-78
2022/08/14 02:26:27;;;;;;;6.15;5.55;;;21.40;90.60;;;;;;6338065;22;20427;-79
2022/08/14 02:28:58;;;;;;;6.28;5.78;;;21.40;90.70;;;;;;6339967;22;20030;-79
2022/08/14 02:31:28;;;;;;;8.40;6.40;;;21.40;90.70;;;;;;6340187;22;20003;-78
2022/08/14 02:33:55;;;;;;;5.90;5.50;;;21.40;90.70;;;;;;6340807;22;20024;-78
2022/08/14 02:36:21;;;;;;;9.88;5.88;;;21.40;90.80;;;;;;6347438;22;19995;-76
2022/08/14 02:38:47;;;;;;;6.47;5.80;;;21.30;90.80;;;;;;6356053;22;20780;-77
2022/08/14 02:41:13;;;;;;;5.70;5.30;;;21.30;90.90;;;;;;6359269;22;20015;-78
2022/08/14 02:43:39;;;;;;;6.53;5.93;;;21.30;91.00;;;;;;6362737;22;20018;-80
2022/08/14 02:46:08;;;;;;;5.97;5.38;;;21.30;91.00;;;;;;6360645;22;19983;-78
2022/08/14 02:48:35;;;;;;;6.40;6.00;;;21.30;91.10;;;;;;6362055;22;20024;-79
2022/08/14 02:51:07;;;;;;;6.50;6.05;;;21.20;91.20;;;;;;6363322;22;20001;-78
2022/08/14 02:53:33;;;;;;;7.38;6.50;;;21.20;91.30;;;;;;6362147;22;20020;-78
2022/08/14 02:55:59;;;;;;;7.05;6.45;;;21.20;91.40;;;;;;6341928;22;19999;-78
2022/08/14 02:58:25;;;;;;;7.90;7.20;;;21.20;91.50;;;;;;6337922;22;20434;-78
2022/08/14 03:00:52;;;;;;;7.70;7.10;;;21.20;91.60;;;;;;6338065;22;19995;-79
2022/08/14 03:03:22;;;;;;;7.30;6.70;;;21.20;91.60;;;;;;6338190;22;20044;-79
2022/08/14 03:05:50;;;;;;;7.32;6.78;;;21.20;91.60;;;;;;6338041;22;20491;-79
2022/08/14 03:08:16;;;;;;;6.93;6.43;;;21.20;91.70;;;;;;6336979;22;20449;-79
2022/08/14 03:10:42;;;;;;;7.53;6.85;;;21.20;91.80;;;;;;6338921;22;20045;-79
2022/08/14 03:13:09;;;;;;;9.55;7.05;;;21.10;91.80;;;;;;6338400;22;20003;-79
2022/08/14 03:15:53;;;;;;;7.43;6.72;;;21.10;91.80;;;;;;6337805;22;20006;-78
2022/08/14 03:18:23;;;;;;;7.40;6.70;;;21.10;91.80;;;;;;6338144;22;20006;-80
2022/08/14 03:20:50;;;;;;;7.10;6.57;;;21.10;91.90;;;;;;6337766;22;19998;-79
2022/08/14 03:23:17;;;;;;;8.43;7.25;;;21.10;92.00;;;;;;6337613;22;20282;-78
2022/08/14 03:25:43;;;;;;;7.43;6.82;;;21.10;92.00;;;;;;6338928;22;20002;-78
2022/08/14 03:28:09;;;;;;;7.88;7.30;;;21.00;92.10;;;;;;6337231;22;20671;-77
2022/08/14 03:30:36;;;;;;;7.82;7.05;;;21.00;92.10;;;;;;6338618;22;20030;-79
2022/08/14 03:33:02;;;;;;;7.47;6.78;;;21.00;92.20;;;;;;6338450;22;19998;-80
2022/08/14 03:35:28;;;;;;;8.77;7.63;;;20.90;92.20;;;;;;6337131;22;20006;-79
2022/08/14 03:37:54;;;;;;;8.70;7.85;;;20.90;92.40;;;;;;6338218;22;20011;-79
2022/08/14 03:40:21;;;;;;;7.65;7.05;;;20.90;92.50;;;;;;6337950;22;20097;-80
2022/08/14 03:42:47;;;;;;;9.27;7.43;;;20.80;92.50;;;;;;6337337;22;20010;-80
2022/08/14 03:45:14;;;;;;;7.72;7.13;;;20.80;92.60;;;;;;6338322;22;20003;-79
2022/08/14 03:47:40;;;;;;;8.50;7.90;;;20.80;92.70;;;;;;6338624;22;20097;-79
2022/08/14 03:50:10;;;;;;;9.20;8.40;;;20.80;92.80;;;;;;6337625;22;20007;-80
2022/08/14 03:52:41;;;;;;;7.82;7.10;;;20.80;92.80;;;;;;6338454;22;20002;-80
2022/08/14 03:55:10;;;;;;;7.93;7.25;;;20.70;92.90;;;;;;6338397;22;20003;-79
2022/08/14 03:57:35;;;;;;;9.55;8.57;;;20.70;93.00;;;;;;6337056;22;20303;-79
2022/08/14 04:00:07;;;;;;;8.10;7.50;;;20.70;93.00;;;;;;6338043;22;20011;-79
2022/08/14 04:02:33;;;;;;;8.90;8.20;;;20.60;93.00;;;;;;6337904;22;19995;-78
2022/08/14 04:05:00;;;;;;;9.10;8.30;;;20.70;93.10;;;;;;6337239;22;20006;-78
2022/08/14 04:07:28;;;;;;;9.18;7.90;;;20.60;93.50;;;;;;6337637;22;20077;-79
2022/08/14 04:09:54;;;;;;;8.73;8.02;;;20.60;93.20;;;;;;6337976;22;20385;-79
2022/08/14 04:12:20;;;;;;;7.53;6.93;;;20.60;93.30;;;;;;6336625;22;19999;-79
2022/08/14 04:14:46;;;;;;;7.68;7.07;;;20.50;93.40;;;;;;6337705;22;20015;-79
2022/08/14 04:17:12;;;;;;;8.43;7.72;;;20.50;93.60;;;;;;6336727;22;19995;-79
2022/08/14 04:19:39;;;;;;;8.55;7.85;;;20.50;93.70;;;;;;6338144;22;20045;-80
2022/08/14 04:22:05;;;;;;;9.27;8.57;;;20.40;93.70;;;;;;6338087;22;20068;-79
2022/08/14 04:24:31;;;;;;;9.65;8.85;;;20.40;93.90;;;;;;6337215;22;20042;-80
2022/08/14 04:26:57;;;;;;;9.48;8.63;;;20.90;94.10;;;;;;6339074;22;20006;-79
2022/08/14 04:29:22;;;;;;;9.80;9.10;;;20.40;94.00;;;;;;6339531;22;20407;-78
2022/08/14 04:31:49;;;;;;;8.85;8.02;;;20.40;94.10;;;;;;6337434;22;19998;-80
2022/08/14 04:34:15;;;;;;;9.93;9.05;;;20.40;94.10;;;;;;6339831;22;20007;-77
2022/08/14 04:44:53;;;;;;;9.57;8.82;;;20.30;94.60;;;;;;6340377;22;20051;-79
2022/08/14 04:50:04;;;;;;;9.57;8.68;;;20.30;94.60;;;;;;6340505;22;20079;-79
2022/08/14 04:52:30;;;;;;;11.63;8.98;;;20.30;94.70;;;;;;6338444;22;20007;-79
2022/08/14 04:54:56;;;;;;;9.65;8.93;;;20.20;94.70;;;;;;6339989;22;20434;-78
2022/08/14 04:57:22;;;;;;;9.43;8.73;;;20.30;94.80;;;;;;6339705;22;19999;-79
2022/08/14 04:59:47;;;;;;;9.45;8.55;;;20.30;94.80;;;;;;6338977;22;20384;-79
2022/08/14 05:02:15;;;;;;;10.73;8.82;;;20.30;94.90;;;;;;6339645;22;19991;-78
2022/08/14 05:04:41;;;;;;;9.95;9.15;;;20.30;95.00;;;;;;6339858;22;20002;-80
2022/08/14 05:07:06;;;;;;;9.35;8.55;;;20.40;94.90;;;;;;6339339;22;20010;-78
2022/08/14 05:09:32;;;;;;;10.43;9.70;;;20.40;95.00;;;;;;6339516;22;20002;-79
2022/08/14 05:11:57;;;;;;;8.95;8.27;;;20.50;94.70;;;;;;6340226;22;19999;-78
2022/08/14 05:14:24;;;;;;;9.02;8.10;;;20.50;94.80;;;;;;6338896;22;20007;-79
2022/08/14 05:16:49;;;;;;;11.23;8.75;;;20.50;94.70;;;;;;6339796;22;20048;-78
2022/08/14 05:19:15;;;;;;;10.63;9.63;;;20.60;94.70;;;;;;6337604;22;20011;-78
2022/08/14 05:21:41;;;;;;;9.13;8.32;;;20.60;94.70;;;;;;6338901;22;20072;-78
2022/08/14 05:24:10;;;;;;;13.63;10.20;;;20.70;94.70;;;;;;6338818;22;20014;-78
2022/08/14 05:26:40;;;;;;;11.02;10.02;;;20.70;94.60;;;;;;6339450;22;20032;-78
2022/08/14 05:29:09;;;;;;;9.75;8.98;;;20.80;94.50;;;;;;6338078;22;20002;-78
2022/08/14 05:31:38;;;;;;;9.30;8.60;;;20.80;94.50;;;;;;6339406;22;20003;-78
2022/08/14 05:34:04;;;;;;;8.88;8.13;;;20.90;94.50;;;;;;6339116;22;20434;-78
2022/08/14 05:36:32;;;;;;;9.13;8.43;;;20.90;94.50;;;;;;6338352;22;20070;-77
2022/08/14 05:38:58;;;;;;;10.63;9.82;;;21.00;94.40;;;;;;6339632;22;20014;-78
2022/08/14 05:41:23;;;;;;;13.07;9.05;;;20.90;94.30;;;;;;6338816;22;20083;-78
2022/08/14 05:43:49;;;;;;;12.52;8.70;;;21.00;94.20;;;;;;6338663;22;19999;-79
2022/08/14 05:46:17;;;;;;;10.90;9.95;;;21.10;94.30;;;;;;6338766;22;20458;-79
2022/08/14 05:48:48;;;;;;;9.73;9.02;;;21.10;94.30;;;;;;6338235;22;20003;-78
2022/08/14 05:51:13;;;;;;;9.57;8.68;;;21.20;94.20;;;;;;6338996;22;20006;-77
2022/08/14 05:53:39;;;;;;;10.98;9.98;;;21.30;94.30;;;;;;6339127;22;20026;-77
2022/08/14 05:56:05;;;;;;;11.38;10.27;;;21.30;94.30;;;;;;6338640;22;19995;-78
2022/08/14 05:58:33;;;;;;;11.60;9.93;;;21.30;94.20;;;;;;6338749;22;20430;-78
2022/08/14 06:00:59;;;;;;;10.95;9.95;;;21.30;94.30;;;;;;6339422;22;20006;-78
2022/08/14 06:03:24;;;;;;;11.57;10.40;;;21.40;94.20;;;;;;6338074;22;20304;-80
2022/08/14 06:05:54;;;;;;;10.48;9.52;;;21.40;94.30;;;;;;6339917;22;20066;-78
2022/08/14 06:08:30;;;;;;;10.77;9.65;;;21.40;94.30;;;;;;6339053;22;19999;-78
2022/08/14 06:11:02;;;;;;;11.05;10.10;;;21.40;94.30;;;;;;6338564;22;20007;-78
2022/08/14 06:13:54;;;;;;;11.05;9.95;;;21.50;94.30;;;;;;6339182;22;20003;-78
2022/08/14 06:16:19;;;;;;;10.55;9.57;;;21.50;94.50;;;;;;6331918;22;20003;-79
2022/08/14 06:18:46;;;;;;;11.45;10.45;;;21.50;94.60;;;;;;6337905;22;20020;-79
2022/08/14 06:21:12;;;;;;;9.95;9.05;;;21.60;94.70;;;;;;6337701;22;20006;-79
2022/08/14 06:23:37;;;;;;;10.77;9.77;;;21.60;94.80;;;;;;6338094;22;20023;-77
2022/08/14 06:26:03;;;;;;;10.75;9.93;;;21.70;94.80;;;;;;6337491;22;20003;-78
2022/08/14 06:28:29;;;;;;;16.88;10.25;;;21.70;94.80;;;;;;6337904;22;20085;-77
2022/08/14 06:30:55;;;;;;;13.18;12.00;;;21.70;94.90;;;;;;6338486;22;20003;-78
2022/08/14 06:33:21;;;;;;;11.65;10.55;;;21.80;94.90;;;;;;6339454;22;20085;-78
2022/08/14 06:35:48;;;;;;;11.90;10.82;;;21.80;94.60;;;;;;6338678;22;19999;-78
2022/08/14 06:38:16;;;;;;;15.85;10.82;;;21.90;94.50;;;;;;6337220;22;20034;-79
2022/08/14 06:40:42;;;;;;;12.13;10.93;;;21.90;94.50;;;;;;6340377;22;19999;-78
2022/08/14 06:43:10;;;;;;;12.50;11.30;;;22.00;94.50;;;;;;6339147;22;20029;-78
2022/08/14 06:45:39;;;;;;;11.85;10.75;;;22.00;94.60;;;;;;6338236;22;20089;-78
2022/08/14 06:48:19;;;;;;;10.70;9.70;;;22.00;94.70;;;;;;6339510;22;20042;-78
2022/08/14 06:50:48;;;;;;;11.82;10.65;;;22.10;94.60;;;;;;6339165;22;20070;-78
2022/08/14 06:53:15;;;;;;;10.18;9.38;;;22.10;94.70;;;;;;6337915;22;20352;-78
2022/08/14 06:55:41;;;;;;;12.52;11.38;;;22.20;94.70;;;;;;6337504;22;20330;-78
2022/08/14 06:58:11;;;;;;;11.82;10.50;;;22.20;94.70;;;;;;6334823;22;20560;-78
2022/08/14 07:00:37;;;;;;;11.40;9.57;;;22.30;94.50;;;;;;6334255;22;20013;-77
2022/08/14 07:05:47;;;;;;;11.23;10.18;;;22.40;94.20;;;;;;6339690;22;20010;-77
2022/08/14 07:08:28;;;;;;;11.13;9.75;;;22.50;94.30;;;;;;6338606;22;20007;-77
2022/08/14 07:10:57;;;;;;;10.85;9.77;;;22.40;94.00;;;;;;6337651;22;20025;-77
2022/08/14 07:13:25;;;;;;;10.25;9.25;;;22.60;94.00;;;;;;6336953;22;20052;-77
2022/08/14 07:15:53;;;;;;;9.68;8.90;;;22.60;94.00;;;;;;6346715;22;20062;-78
2022/08/14 07:18:27;;;;;;;9.70;9.00;;;22.70;93.60;;;;;;6351108;22;19999;-76
2022/08/14 07:20:53;;;;;;;11.00;9.85;;;22.80;93.60;;;;;;6356620;22;19999;-76
2022/08/14 07:23:22;;;;;;;10.95;9.85;;;22.90;93.70;;;;;;6359193;22;19999;-77
2022/08/14 07:25:49;;;;;;;13.65;9.32;;;22.90;93.30;;;;;;6361750;22;20311;-78
2022/08/14 07:28:18;;;;;;;11.40;9.18;;;23.00;93.20;;;;;;6359041;22;20021;-78
2022/08/14 07:30:43;;;;;;;11.77;8.70;;;23.00;93.20;;;;;;6356438;22;19999;-78
2022/08/14 07:33:10;;;;;;;9.65;8.82;;;23.10;93.20;;;;;;6342097;22;20017;-78
2022/08/14 07:35:37;;;;;;;9.68;8.88;;;23.20;93.00;;;;;;6335615;22;19998;-77
2022/08/14 07:38:04;;;;;;;10.65;9.68;;;23.20;92.90;;;;;;6336311;22;20086;-77
2022/08/14 07:40:30;;;;;;;10.10;9.30;;;23.30;92.80;;;;;;6336058;22;20021;-77
2022/08/14 07:42:56;;;;;;;10.25;9.13;;;23.30;92.60;;;;;;6334855;22;20007;-77
2022/08/14 07:45:22;;;;;;;7.95;7.28;;;23.40;92.70;;;;;;6336576;22;20011;-79
2022/08/14 07:47:47;;;;;;;8.27;7.57;;;23.40;92.80;;;;;;6336307;22;20448;-77
2022/08/14 07:50:16;;;;;;;10.10;9.25;;;23.40;92.80;;;;;;6335090;22;20071;-77
2022/08/14 07:52:43;;;;;;;11.68;10.40;;;23.60;92.80;;;;;;6336197;22;19999;-77
2022/08/14 07:55:11;;;;;;;12.02;9.00;;;23.60;92.70;;;;;;6334666;22;19999;-77
2022/08/14 07:57:42;;;;;;;9.52;8.73;;;23.70;92.50;;;;;;6336368;22;20006;-77
2022/08/14 08:00:11;;;;;;;8.40;7.60;;;23.70;92.50;;;;;;6335246;22;20014;-78
2022/08/14 08:02:39;;;;;;;10.00;9.02;;;23.80;92.50;;;;;;6333592;22;20485;-78
2022/08/14 08:05:07;;;;;;;11.25;9.93;;;23.90;92.50;;;;;;6335999;22;19999;-78
2022/08/14 08:07:33;;;;;;;11.70;8.65;;;24.00;92.60;;;;;;6334399;22;19995;-77
2022/08/14 08:10:29;;;;;;;12.05;10.80;;;24.00;92.10;;;;;;6334032;22;20010;-77
2022/08/14 08:12:53;;;;;;;9.98;9.07;;;24.10;91.90;;;;;;6336065;22;20349;-80
2022/08/14 08:15:20;;;;;;;9.88;8.98;;;24.10;91.90;;;;;;6336213;22;20026;-78
2022/08/14 08:17:46;;;;;;;10.98;9.82;;;24.20;91.90;;;;;;6335656;22;19999;-80
2022/08/14 08:20:16;;;;;;;8.40;7.80;;;24.20;91.60;;;;;;6335418;22;20442;-79
2022/08/14 08:22:42;;;;;;;9.05;8.35;;;24.30;91.40;;;;;;6335488;22;20427;-77
2022/08/14 08:25:08;;;;;;;12.85;8.85;;;24.40;91.40;;;;;;6334696;22;20022;-78
2022/08/14 08:27:34;;;;;;;9.63;8.82;;;24.40;91.20;;;;;;6335731;22;20347;-78
2022/08/14 08:30:08;;;;;;;8.10;7.30;;;24.50;91.00;;;;;;6336044;22;20060;-79
2022/08/14 08:32:39;;;;;;;10.00;9.00;;;24.60;90.80;;;;;;6335188;22;20528;-76
2022/08/14 08:35:08;;;;;;;8.75;8.02;;;24.60;90.70;;;;;;6335834;22;20398;-76
2022/08/14 08:37:35;;;;;;;11.40;9.30;;;24.70;90.60;;;;;;6334121;22;20002;-76
2022/08/14 08:40:00;;;;;;;11.48;8.40;;;24.80;90.50;;;;;;6335871;22;20011;-76
2022/08/14 08:42:26;;;;;;;10.93;10.00;;;24.90;90.50;;;;;;6334732;22;20006;-75
2022/08/14 08:44:55;;;;;;;9.13;8.32;;;24.90;90.60;;;;;;6335448;22;20007;-79
2022/08/14 08:47:21;;;;;;;9.15;8.20;;;25.00;90.60;;;;;;6335990;22;20026;-76
2022/08/14 08:49:47;;;;;;;8.95;8.07;;;25.00;90.60;;;;;;6336683;22;20009;-78
2022/08/14 08:52:13;;;;;;;9.27;8.48;;;25.10;90.70;;;;;;6337353;22;20007;-77
2022/08/14 08:54:38;;;;;;;8.82;8.13;;;25.20;90.40;;;;;;6337487;22;20007;-78
2022/08/14 08:57:12;;;;;;;10.07;9.07;;;25.30;90.40;;;;;;6337752;22;20006;-78
2022/08/14 08:59:38;;;;;;;8.65;7.95;;;25.30;90.20;;;;;;6336574;22;20010;-77
2022/08/14 09:02:08;;;;;;;8.27;7.57;;;25.40;90.10;;;;;;6336358;22;20007;-78
2022/08/14 09:04:36;;;;;;;;;;;25.50;89.90;;;;;;6336553;22;20090;-79
2022/08/14 09:07:02;;;;;;;9.63;7.38;;;25.60;90.10;;;;;;6336180;22;19906;-80
2022/08/14 09:09:30;;;;;;;8.35;7.68;;;25.70;89.50;;;;;;6335547;22;20293;-80
2022/08/14 09:11:58;;;;;;;9.18;7.88;;;25.80;88.90;;;;;;6336823;22;20037;-80
2022/08/14 09:14:28;;;;;;;10.30;6.97;;;25.80;87.60;;;;;;6334900;22;20407;-79
2022/08/14 09:16:56;;;;;;;8.15;7.55;;;26.00;88.30;;;;;;6336801;22;20006;-80
2022/08/14 09:19:22;;;;;;;7.32;6.72;;;26.10;88.60;;;;;;6336598;22;20435;-79
2022/08/14 09:21:47;;;;;;;7.07;6.53;;;26.10;89.10;;;;;;6337383;22;20009;-79
2022/08/14 09:24:14;;;;;;;8.00;7.32;;;26.30;89.40;;;;;;6337337;22;20450;-80
2022/08/14 09:26:41;;;;;;;10.13;7.28;;;26.40;89.20;;;;;;6337065;22;20002;-80
2022/08/14 09:29:08;;;;;;;13.25;7.45;;;26.50;89.10;;;;;;6337302;22;20003;-80
2022/08/14 09:31:43;;;;;;;7.95;7.28;;;26.40;88.40;;;;;;6337228;22;20006;-81
2022/08/14 09:34:38;;;;;;;7.95;7.38;;;26.50;88.60;;;;;;6337278;22;19999;-79
2022/08/14 09:37:27;;;;;;;13.63;8.07;;;26.70;89.00;;;;;;6338026;22;20092;-80
2022/08/14 09:39:59;;;;;;;8.73;6.65;;;26.80;86.30;;;;;;6336888;22;20010;-80
2022/08/14 09:42:30;;;;;;;7.03;6.43;;;26.80;85.90;;;;;;6336701;22;20401;-79
2022/08/14 09:45:19;;;;;;;6.78;6.25;;;26.90;85.70;;;;;;6338317;22;20010;-79
2022/08/14 09:47:52;;;;;;;7.07;5.95;;;27.00;85.70;;;;;;6336369;22;20111;-79
2022/08/14 09:50:18;;;;;;;6.30;5.88;;;27.10;84.20;;;;;;6338164;22;20013;-80
2022/08/14 09:52:51;;;;;;;8.20;7.50;;;27.10;83.50;;;;;;6336442;22;20007;-78
2022/08/14 09:55:21;;;;;;;7.43;6.82;;;27.20;84.80;;;;;;6337469;22;20062;-79
2022/08/14 09:57:46;;;;;;;10.05;7.10;;;27.30;84.90;;;;;;6337960;22;20013;-80
2022/08/14 10:00:15;;;;;;;8.48;6.80;;;27.40;84.80;;;;;;6336776;22;20094;-77
2022/08/14 10:02:52;;;;;;;6.35;5.85;;;27.50;84.20;;;;;;6336220;22;20066;-78
2022/08/14 10:05:32;;;;;;;6.35;5.72;;;27.60;83.60;;;;;;6337893;22;20074;-78
2022/08/14 10:08:00;;;;;;;7.88;7.10;;;27.70;83.60;;;;;;6336515;22;20498;-79
2022/08/14 10:10:37;;;;;;;9.15;6.32;;;27.80;83.10;;;;;;6332572;22;20002;-79
2022/08/14 10:13:04;;;;;;;6.63;6.10;;;27.90;83.60;;;;;;6337109;22;20032;-79
2022/08/14 10:15:31;;;;;;;6.22;5.65;;;28.00;83.70;;;;;;6336070;22;20529;-80
2022/08/14 10:18:15;;;;;;;8.57;6.95;;;27.90;82.90;;;;;;6336466;22;20007;-80
2022/08/14 10:20:50;;;;;;;7.68;4.95;;;28.00;81.40;;;;;;6336629;22;20372;-79
2022/08/14 10:23:18;;;;;;;6.35;5.88;;;27.20;80.80;;;;;;6335397;22;19994;-79
2022/08/14 10:25:49;;;;;;;6.32;5.82;;;28.10;81.50;;;;;;6337418;22;20015;-78
2022/08/14 10:28:16;;;;;;;6.78;6.38;;;28.20;82.40;;;;;;6335682;22;19999;-80
2022/08/14 10:30:46;;;;;;;5.28;4.78;;;28.30;82.00;;;;;;6337033;22;20034;-80
2022/08/14 10:33:31;;;;;;;5.65;5.18;;;28.30;81.30;;;;;;6336630;22;20066;-80
2022/08/14 10:36:01;;;;;;;4.60;4.30;;;28.40;80.90;;;;;;6337206;22;20312;-78
2022/08/14 10:38:27;;;;;;;7.65;4.47;;;28.50;79.00;;;;;;6336118;22;20086;-80
2022/08/14 10:40:52;;;;;;;5.38;4.53;;;28.60;78.30;;;;;;6337925;22;20033;-79
2022/08/14 10:43:24;;;;;;;5.05;4.65;;;28.50;78.30;;;;;;6339110;22;20011;-79
2022/08/14 10:45:59;;;;;;;5.60;5.07;;;28.70;78.70;;;;;;6337181;22;19994;-78
2022/08/14 10:48:25;;;;;;;5.13;4.72;;;28.80;77.50;;;;;;6337483;22;20011;-79
2022/08/14 10:50:52;;;;;;;5.00;4.60;;;28.90;77.30;;;;;;6336684;22;20012;-79
2022/08/14 10:53:32;;;;;;;5.43;4.93;;;29.00;77.40;;;;;;6336171;22;20003;-79
2022/08/14 10:56:12;;;;;;;5.13;4.72;;;29.10;77.40;;;;;;6337294;22;19998;-79
2022/08/14 10:58:38;;;;;;;5.70;4.18;;;29.20;76.80;;;;;;6336193;22;20014;-78
2022/08/14 11:01:06;;;;;;;4.25;3.85;;;29.20;75.60;;;;;;6337600;22;20009;-78
2022/08/14 11:03:42;;;;;;;5.30;4.18;;;29.30;74.30;;;;;;6336527;22;20003;-80
2022/08/14 11:06:18;;;;;;;4.35;4.05;;;29.40;73.90;;;;;;6335523;22;20006;-79
2022/08/14 11:08:46;;;;;;;4.35;3.83;;;29.50;74.00;;;;;;6336342;22;20014;-78
2022/08/14 11:11:11;;;;;;;3.88;3.58;;;29.50;74.20;;;;;;6336174;22;20003;-79
2022/08/14 11:13:42;;;;;;;6.30;4.50;;;29.60;73.40;;;;;;6335364;22;20331;-79
2022/08/14 11:16:09;;;;;;;4.00;3.70;;;29.60;72.20;;;;;;6337711;22;20002;-79
2022/08/14 11:18:36;;;;;;;4.13;3.83;;;29.70;72.00;;;;;;6336772;22;20041;-79
2022/08/14 11:21:05;;;;;;;4.55;4.22;;;29.70;71.90;;;;;;6335782;22;20033;-79
2022/08/14 11:23:37;;;;;;;6.32;3.65;;;29.70;71.90;;;;;;6336346;22;20057;-79
2022/08/14 11:26:05;;;;;;;3.50;3.20;;;29.90;71.90;;;;;;6337177;22;19999;-77
2022/08/14 11:28:38;;;;;;;4.63;3.58;;;29.90;70.10;;;;;;6336072;22;20027;-78
2022/08/14 11:31:07;;;;;;;3.05;2.85;;;30.10;68.90;;;;;;6338415;22;20093;-78
2022/08/14 11:33:35;;;;;;;3.28;3.08;;;30.10;67.70;;;;;;6337788;22;20049;-79
2022/08/14 11:36:04;;;;;;;4.28;3.58;;;30.40;68.20;;;;;;6338623;22;20044;-80
2022/08/14 11:38:45;;;;;;;3.15;2.95;;;30.20;68.70;;;;;;6338052;22;20453;-80
2022/08/14 11:41:12;;;;;;;3.80;3.25;;;30.10;68.50;;;;;;6337131;22;20500;-80
2022/08/14 11:43:43;;;;;;;3.28;2.97;;;30.20;69.10;;;;;;6338598;22;20069;-78
2022/08/14 11:46:12;;;;;;;5.55;3.45;;;30.20;69.10;;;;;;6337190;22;20078;-79
2022/08/14 11:48:50;;;;;;;4.25;3.85;;;30.20;68.20;;;;;;6337408;22;20406;-79
2022/08/14 11:51:22;;;;;;;3.75;3.45;;;30.30;68.50;;;;;;6337921;22;20377;-79
2022/08/14 11:54:06;;;;;;;3.20;3.00;;;30.30;68.60;;;;;;6338625;22;20082;-80
2022/08/14 11:56:42;;;;;;;6.28;3.45;;;30.30;66.60;;;;;;6337447;22;20006;-80
2022/08/14 11:59:16;;;;;;;3.90;3.47;;;30.40;66.40;;;;;;6338064;22;20426;-79
2022/08/14 12:01:45;;;;;;;6.78;3.22;;;30.50;68.00;;;;;;6337737;22;19995;-80
2022/08/14 12:04:12;;;;;;;3.70;3.47;;;30.60;67.30;;;;;;6338233;22;20646;-80
2022/08/14 12:06:54;;;;;;;5.32;3.88;;;30.70;66.90;;;;;;6337788;22;20419;-78
2022/08/14 12:09:37;;;;;;;4.45;3.67;;;30.80;67.20;;;;;;6336670;22;20027;-79
2022/08/14 12:12:14;;;;;;;4.43;4.03;;;30.90;67.70;;;;;;6337605;22;20006;-78
2022/08/14 12:14:55;;;;;;;3.42;3.13;;;31.00;67.90;;;;;;6338754;22;19999;-80
2022/08/14 12:17:32;;;;;;;3.30;3.10;;;31.10;66.90;;;;;;6337763;22;20081;-79
2022/08/14 12:20:00;;;;;;;3.20;3.00;;;30.80;65.80;;;;;;6337738;22;20141;-79
2022/08/14 12:22:37;;;;;;;4.88;3.58;;;31.10;65.90;;;;;;6337208;22;20002;-79
2022/08/14 12:25:08;;;;;;;3.53;3.22;;;31.10;66.00;;;;;;6338352;22;20455;-80
2022/08/14 12:27:37;;;;;;;3.95;3.67;;;31.20;66.30;;;;;;6339109;22;20072;-79
2022/08/14 12:30:04;;;;;;;9.05;3.50;;;31.20;66.70;;;;;;6339014;22;20033;-80
2022/08/14 12:32:45;;;;;;;3.35;3.15;;;31.40;65.90;;;;;;6339233;22;20445;-82
2022/08/14 12:35:13;;;;;;;3.60;3.30;;;31.40;64.90;;;;;;6341492;22;20013;-79
2022/08/14 12:37:50;;;;;;;4.10;3.80;;;31.50;65.40;;;;;;6339230;22;20044;-78
2022/08/14 12:40:23;;;;;;;4.43;4.03;;;31.50;66.80;;;;;;6339282;22;20451;-78
2022/08/14 12:42:51;;;;;;;4.28;3.97;;;31.60;66.30;;;;;;6340171;22;19995;-78
2022/08/14 12:45:19;;;;;;;7.78;4.32;;;31.60;66.70;;;;;;6349028;22;20048;-80
2022/08/14 12:47:45;;;;;;;3.72;3.42;;;31.60;67.00;;;;;;6343157;22;20003;-79
2022/08/14 12:50:11;;;;;;;3.55;3.25;;;31.70;66.00;;;;;;6359311;22;19999;-78
2022/08/14 12:52:40;;;;;;;3.78;3.47;;;31.80;65.40;;;;;;6358588;22;20002;-80
2022/08/14 12:55:15;;;;;;;3.80;3.50;;;32.00;64.50;;;;;;6360615;22;20007;-76
2022/08/14 12:57:43;;;;;;;3.90;3.50;;;32.10;64.40;;;;;;6358797;22;20032;-78
2022/08/14 13:00:14;;;;;;;4.10;3.80;;;32.00;63.80;;;;;;6356124;22;20044;-78
2022/08/14 13:02:40;;;;;;;4.70;4.25;;;32.00;64.40;;;;;;6358722;22;20442;-80
2022/08/14 13:05:11;;;;;;;3.90;3.60;;;31.90;64.60;;;;;;6359508;22;20026;-79
2022/08/14 13:07:39;;;;;;;4.15;3.85;;;32.00;65.00;;;;;;6357994;22;20002;-78
2022/08/14 13:10:07;;;;;;;4.93;4.20;;;32.30;65.00;;;;;;6357502;22;20379;-79
2022/08/14 13:12:33;;;;;;;6.07;4.70;;;32.40;64.60;;;;;;6356184;22;19998;-81